createdAt,value
2019-02-07T00:00:24.486Z,12.63
2019-02-07T00:02:52.855Z,13.30
2019-02-07T00:05:21.276Z,16.10
2019-02-07T00:07:49.740Z,13.78
2019-02-07T00:10:19.480Z,15.08
2019-02-07T00:12:47.875Z,15.45
2019-02-07T00:15:16.702Z,13.83
2019-02-07T00:17:45.190Z,13.88
2019-02-07T00:20:16.068Z,14.13
2019-02-07T00:22:44.481Z,14.03
2019-02-07T00:25:12.888Z,13.38
2019-02-07T00:27:41.300Z,11.93
2019-02-07T00:30:21.286Z,14.25
2019-02-07T00:32:49.664Z,13.83
2019-02-07T00:35:18.024Z,14.10
2019-02-07T00:37:46.449Z,14.58
2019-02-07T00:40:20.976Z,14.05
2019-02-07T00:42:49.324Z,14.07
2019-02-07T00:45:18.787Z,15.07
2019-02-07T00:47:47.509Z,12.68
2019-02-07T00:50:18.576Z,13.47
2019-02-07T00:52:47.058Z,12.98
2019-02-07T00:55:19.370Z,13.90
2019-02-07T00:57:47.756Z,11.43
2019-02-07T01:00:21.844Z,11.48
2019-02-07T01:02:50.316Z,12.68
2019-02-07T01:05:19.674Z,11.28
2019-02-07T01:07:48.159Z,11.03
2019-02-07T01:10:22.865Z,11.10
2019-02-07T01:12:51.287Z,12.33
2019-02-07T01:15:19.666Z,11.50
2019-02-07T01:17:48.046Z,12.88
2019-02-07T01:20:16.778Z,11.97
2019-02-07T01:22:45.111Z,10.88
2019-02-07T01:25:16.273Z,10.98
2019-02-07T01:27:44.646Z,10.93
2019-02-07T01:30:18.326Z,11.20
2019-02-07T01:32:46.712Z,11.68
2019-02-07T01:35:15.122Z,11.40
2019-02-07T01:37:43.604Z,9.60
2019-02-07T01:40:17.112Z,9.30
2019-02-07T01:42:45.523Z,10.90
2019-02-07T01:45:16.820Z,9.70
2019-02-07T01:47:45.200Z,10.10
2019-02-07T01:50:15.932Z,8.40
2019-02-07T01:52:44.312Z,9.73
2019-02-07T01:55:12.705Z,10.00
2019-02-07T01:57:41.105Z,8.48
2019-02-07T02:00:12.321Z,8.55
2019-02-07T02:02:40.735Z,8.88
2019-02-07T02:05:11.550Z,10.10
2019-02-07T02:07:40.123Z,9.63
2019-02-07T02:10:11.915Z,11.20
2019-02-07T02:12:40.325Z,10.58
2019-02-07T02:15:10.560Z,9.78
2019-02-07T02:17:38.969Z,9.98
2019-02-07T02:20:10.725Z,10.30
2019-02-07T02:22:39.601Z,10.60
2019-02-07T02:25:10.410Z,9.90
2019-02-07T02:27:38.947Z,10.28
2019-02-07T02:30:16.134Z,9.95
2019-02-07T02:32:44.550Z,10.70
2019-02-07T02:35:12.975Z,10.13
2019-02-07T02:37:41.704Z,12.68
2019-02-07T02:40:11.351Z,12.18
2019-02-07T02:42:39.861Z,11.95
2019-02-07T02:45:14.375Z,12.23
2019-02-07T02:47:42.761Z,13.22
2019-02-07T02:50:14.222Z,11.83
2019-02-07T02:52:42.583Z,12.25
2019-02-07T02:55:12.672Z,11.57
2019-02-07T02:57:41.029Z,9.95
2019-02-07T03:00:14.341Z,11.30
2019-02-07T03:02:50.226Z,13.40
2019-02-07T03:05:23.012Z,15.10
2019-02-07T03:08:02.267Z,13.68
2019-02-07T03:10:35.014Z,12.07
2019-02-07T03:13:23.119Z,14.75
2019-02-07T03:15:55.883Z,13.00
2019-02-07T03:18:28.953Z,14.03
2019-02-07T03:21:01.556Z,13.43
2019-02-07T03:23:43.790Z,12.65
2019-02-07T03:26:16.573Z,13.28
2019-02-07T03:28:46.603Z,14.05
2019-02-07T03:31:31.758Z,13.13
2019-02-07T03:34:10.427Z,13.32
2019-02-07T03:36:49.386Z,12.65
2019-02-07T03:39:19.432Z,15.05
2019-02-07T03:41:52.427Z,13.93
2019-02-07T03:44:22.448Z,14.05
2019-02-07T03:46:52.474Z,13.90
2019-02-07T03:49:38.671Z,13.58
2019-02-07T03:52:08.781Z,13.35
2019-02-07T03:54:38.929Z,12.43
2019-02-07T03:57:08.995Z,14.28
2019-02-07T03:59:50.964Z,13.20
2019-02-07T04:02:36.070Z,11.12
2019-02-07T04:05:07.726Z,11.73
2019-02-07T04:07:49.734Z,10.32
2019-02-07T04:10:19.748Z,11.45
2019-02-07T04:12:49.773Z,8.95
2019-02-07T04:15:35.825Z,9.28
2019-02-07T04:18:05.875Z,10.03
2019-02-07T04:20:39.041Z,11.95
2019-02-07T04:23:18.487Z,12.20
2019-02-07T04:25:48.520Z,11.43
2019-02-07T04:28:35.209Z,11.97
2019-02-07T04:31:05.226Z,10.38
2019-02-07T04:33:51.915Z,9.03
2019-02-07T04:36:22.123Z,9.63
2019-02-07T04:39:01.397Z,10.53
2019-02-07T04:41:59.570Z,10.60
2019-02-07T04:44:38.822Z,9.15
2019-02-07T04:47:14.790Z,10.53
2019-02-07T04:49:57.156Z,9.40
2019-02-07T04:52:29.944Z,10.13
2019-02-07T04:55:11.953Z,9.70
2019-02-07T04:57:54.162Z,9.73
2019-02-07T05:00:30.128Z,9.43
2019-02-07T05:03:00.150Z,9.50
2019-02-07T05:05:36.186Z,10.25
2019-02-07T05:08:11.986Z,10.40
2019-02-07T05:10:47.768Z,9.73
2019-02-07T05:13:34.109Z,9.63
2019-02-07T05:16:04.472Z,10.03
2019-02-07T05:18:40.482Z,9.55
2019-02-07T05:21:26.784Z,9.28
2019-02-07T05:23:56.806Z,10.90
2019-02-07T05:26:36.417Z,10.58
2019-02-07T05:29:09.280Z,10.18
2019-02-07T05:31:42.281Z,10.48
2019-02-07T05:34:14.957Z,10.08
2019-02-07T05:36:57.738Z,10.65
2019-02-07T05:39:27.733Z,11.12
2019-02-07T05:42:06.566Z,10.00
2019-02-07T05:44:39.302Z,10.23
2019-02-07T05:47:20.937Z,10.45
2019-02-07T05:49:53.699Z,10.45
2019-02-07T05:52:26.132Z,10.80
2019-02-07T05:54:59.119Z,10.72
2019-02-07T05:57:47.011Z,11.40
2019-02-07T06:00:26.250Z,11.68
2019-02-07T06:02:56.290Z,11.40
2019-02-07T06:05:26.324Z,12.05
2019-02-07T06:07:56.354Z,11.73
2019-02-07T06:10:32.088Z,11.70
2019-02-07T06:13:02.111Z,10.98
2019-02-07T06:15:35.119Z,12.40
2019-02-07T06:18:05.444Z,11.70
2019-02-07T06:20:44.479Z,11.60
2019-02-07T06:23:31.040Z,11.68
2019-02-07T06:26:19.072Z,11.70
2019-02-07T06:29:00.971Z,12.47
2019-02-07T06:31:47.281Z,11.55
2019-02-07T06:34:28.360Z,11.68
2019-02-07T06:37:05.359Z,12.60
2019-02-07T06:39:35.391Z,12.50
2019-02-07T06:42:11.113Z,13.65
2019-02-07T06:44:41.163Z,12.23
2019-02-07T06:47:23.169Z,10.82
2019-02-07T06:50:08.258Z,11.57
2019-02-07T06:52:47.541Z,11.90
2019-02-07T06:55:20.719Z,12.93
2019-02-07T06:57:56.847Z,11.68
2019-02-07T07:00:35.991Z,13.32
2019-02-07T07:03:14.971Z,12.88
2019-02-07T07:05:45.043Z,12.35
2019-02-07T07:08:15.041Z,13.10
2019-02-07T07:10:47.503Z,11.35
2019-02-07T07:13:23.381Z,12.20
2019-02-07T07:15:53.413Z,12.18
2019-02-07T07:18:35.491Z,13.55
2019-02-07T07:21:17.646Z,11.85
2019-02-07T07:23:50.615Z,12.47
2019-02-07T07:26:36.811Z,10.80
2019-02-07T07:29:06.822Z,10.63
2019-02-07T07:31:48.998Z,11.15
2019-02-07T07:34:21.723Z,12.13
2019-02-07T07:37:08.043Z,11.35
2019-02-07T07:39:38.069Z,12.37
2019-02-07T07:42:22.973Z,9.90
2019-02-07T07:44:58.985Z,12.00
2019-02-07T07:47:36.093Z,11.18
2019-02-07T07:50:03.831Z,12.05
2019-02-07T07:52:36.936Z,11.53
2019-02-07T07:55:08.202Z,11.28
2019-02-07T07:57:56.590Z,10.78
2019-02-07T08:00:38.712Z,11.95
2019-02-07T08:03:14.498Z,13.28
2019-02-07T08:05:59.848Z,12.93
2019-02-07T08:08:31.015Z,11.38
2019-02-07T08:11:17.266Z,11.68
2019-02-07T08:14:03.480Z,11.95
2019-02-07T08:16:36.444Z,11.83
2019-02-07T08:19:09.172Z,13.45
2019-02-07T08:21:44.937Z,12.47
2019-02-07T08:24:21.088Z,11.05
2019-02-07T08:27:00.039Z,12.50
2019-02-07T08:29:46.344Z,12.75
2019-02-07T08:32:33.046Z,12.75
2019-02-07T08:35:12.382Z,14.58
2019-02-07T08:37:50.916Z,12.33
2019-02-07T08:40:21.324Z,12.82
2019-02-07T08:43:09.584Z,11.95
2019-02-07T08:45:42.588Z,12.70
2019-02-07T08:48:12.684Z,13.45
2019-02-07T08:50:57.694Z,13.60
2019-02-07T08:53:33.584Z,15.00
2019-02-07T08:56:12.466Z,14.65
2019-02-07T08:58:42.671Z,13.72
2019-02-07T09:01:18.694Z,16.57
2019-02-07T09:04:00.611Z,17.07
2019-02-07T09:06:39.254Z,16.15
2019-02-07T09:09:30.352Z,14.95
2019-02-07T09:12:03.285Z,14.60
2019-02-07T09:14:36.363Z,15.35
2019-02-07T09:17:15.002Z,16.00
2019-02-07T09:19:50.641Z,15.32
2019-02-07T09:22:26.120Z,17.05
2019-02-07T09:24:56.122Z,17.37
2019-02-07T09:27:29.067Z,18.25
2019-02-07T09:30:15.688Z,17.85
2019-02-07T09:32:45.720Z,15.50
2019-02-07T09:35:18.553Z,16.40
2019-02-07T09:37:57.424Z,17.40
2019-02-07T09:40:43.676Z,19.02
2019-02-07T09:43:16.509Z,19.70
2019-02-07T09:45:55.168Z,17.77
2019-02-07T09:48:34.099Z,16.75
2019-02-07T09:51:10.132Z,17.80
2019-02-07T09:53:40.151Z,18.07
2019-02-07T09:56:13.121Z,19.60
2019-02-07T09:58:52.146Z,17.62
2019-02-07T10:01:28.167Z,18.75
2019-02-07T10:04:04.198Z,19.32
2019-02-07T10:06:39.978Z,16.52
2019-02-07T10:09:22.848Z,16.73
2019-02-07T10:11:52.872Z,19.52
2019-02-07T10:14:41.213Z,17.27
2019-02-07T10:17:26.522Z,17.73
2019-02-07T10:19:56.612Z,17.42
2019-02-07T10:22:27.201Z,19.70
2019-02-07T10:25:02.990Z,19.17
2019-02-07T10:27:33.136Z,18.40
2019-02-07T10:30:03.090Z,18.50
2019-02-07T10:32:33.211Z,18.80
2019-02-07T10:35:22.899Z,17.73
2019-02-07T10:37:51.134Z,16.65
2019-02-07T10:40:30.012Z,17.77
2019-02-07T10:43:16.569Z,16.12
2019-02-07T10:45:46.621Z,15.25
2019-02-07T10:48:19.610Z,17.92
2019-02-07T10:51:05.890Z,16.52
2019-02-07T10:53:41.742Z,16.73
2019-02-07T10:56:11.804Z,18.25
2019-02-07T10:58:57.929Z,17.30
2019-02-07T11:01:44.648Z,16.52
2019-02-07T11:04:20.504Z,16.48
2019-02-07T11:06:50.541Z,18.17
2019-02-07T11:09:22.995Z,16.60
2019-02-07T11:12:04.958Z,16.32
2019-02-07T11:14:44.069Z,15.10
2019-02-07T11:17:26.418Z,17.48
2019-02-07T11:19:59.135Z,15.50
2019-02-07T11:22:29.161Z,18.10
2019-02-07T11:25:15.637Z,16.43
2019-02-07T11:27:45.653Z,14.83
2019-02-07T11:30:34.628Z,18.00
2019-02-07T11:33:13.789Z,18.32
2019-02-07T11:35:46.823Z,16.60
2019-02-07T11:38:36.292Z,15.53
2019-02-07T11:41:06.878Z,17.23
2019-02-07T11:43:45.993Z,17.30
2019-02-07T11:46:16.031Z,17.37
2019-02-07T11:48:55.041Z,18.00
2019-02-07T11:51:33.938Z,18.33
2019-02-07T11:54:04.027Z,15.98
2019-02-07T11:56:37.379Z,17.80
2019-02-07T11:59:25.735Z,17.40
2019-02-07T12:05:17.264Z,18.20
2019-02-07T12:08:02.933Z,16.43
2019-02-07T12:10:38.655Z,18.13
2019-02-07T12:13:24.825Z,18.07
2019-02-07T12:16:09.725Z,17.87
2019-02-07T12:18:57.865Z,19.50
2019-02-07T12:21:30.708Z,18.00
2019-02-07T12:24:09.973Z,17.70
2019-02-07T12:26:56.175Z,18.20
2019-02-07T12:29:42.495Z,18.67
2019-02-07T12:32:12.533Z,19.47
2019-02-07T12:34:51.311Z,17.20
2019-02-07T12:37:21.358Z,17.70
2019-02-07T12:39:54.437Z,18.13
2019-02-07T12:42:36.815Z,16.23
2019-02-07T12:45:25.455Z,18.03
2019-02-07T12:47:58.226Z,18.23
2019-02-07T12:50:44.933Z,16.15
2019-02-07T12:53:27.339Z,18.63
2019-02-07T12:56:03.391Z,18.07
2019-02-07T12:58:50.206Z,17.20
2019-02-07T13:01:29.210Z,17.53
2019-02-07T13:03:59.230Z,17.20
2019-02-07T13:06:35.367Z,19.03
2019-02-07T13:09:18.907Z,18.10
2019-02-07T13:11:54.855Z,17.27
2019-02-07T13:14:28.123Z,16.77
2019-02-07T13:16:59.188Z,18.47
2019-02-07T13:19:39.979Z,18.23
2019-02-07T13:22:15.679Z,16.30
2019-02-07T13:24:49.067Z,18.30
2019-02-07T13:27:19.105Z,16.10
2019-02-07T13:30:04.346Z,17.03
2019-02-07T13:32:34.409Z,18.33
2019-02-07T13:35:20.973Z,17.23
2019-02-07T13:37:53.798Z,18.40
2019-02-07T13:40:26.776Z,18.53
2019-02-07T13:43:02.809Z,19.77
2019-02-07T13:45:47.858Z,16.77
2019-02-07T13:48:21.082Z,16.20
2019-02-07T13:50:51.088Z,18.30
2019-02-07T13:53:21.056Z,17.70
2019-02-07T13:55:57.053Z,16.50
2019-02-07T13:58:39.428Z,18.03
2019-02-07T14:01:09.452Z,16.87
2019-02-07T14:03:55.921Z,16.03
2019-02-07T14:06:25.932Z,17.30
2019-02-07T14:08:58.738Z,18.53
2019-02-07T14:11:37.674Z,17.33
2019-02-07T14:14:17.794Z,18.30
2019-02-07T14:16:53.859Z,17.43
2019-02-07T14:19:29.590Z,15.83
2019-02-07T14:22:14.868Z,18.80
2019-02-07T14:25:03.063Z,15.07
2019-02-07T14:27:49.375Z,17.53
2019-02-07T14:30:25.195Z,16.17
2019-02-07T14:33:00.892Z,17.00
2019-02-07T14:35:42.989Z,19.53
2019-02-07T14:38:29.417Z,17.33
2019-02-07T14:40:59.448Z,17.17
2019-02-07T14:43:29.522Z,17.80
2019-02-07T14:45:59.569Z,18.13
2019-02-07T14:48:28.127Z,19.37
2019-02-07T14:50:56.543Z,16.83
2019-02-07T14:53:24.922Z,20.10
2019-02-07T14:55:53.308Z,18.67
2019-02-07T14:58:21.710Z,19.77
2019-02-07T15:00:50.085Z,17.37
2019-02-07T15:03:18.563Z,18.17
2019-02-07T15:05:47.053Z,18.30
2019-02-07T15:08:15.516Z,17.80
2019-02-07T15:10:43.954Z,19.43
2019-02-07T15:13:12.350Z,17.10
2019-02-07T15:15:40.765Z,17.90
2019-02-07T15:18:09.130Z,16.53
2019-02-07T15:20:37.885Z,17.40
2019-02-07T15:23:06.270Z,16.17
2019-02-07T15:25:34.559Z,17.00
2019-02-07T15:28:03.026Z,17.00
2019-02-07T15:30:31.420Z,18.13
2019-02-07T15:32:59.822Z,17.67
2019-02-07T15:35:31.211Z,17.20
2019-02-07T15:37:59.902Z,17.13
2019-02-07T15:40:28.287Z,17.93
2019-02-07T15:42:56.688Z,17.40
2019-02-07T15:45:25.071Z,18.13
2019-02-07T15:47:53.436Z,18.67
2019-02-07T15:50:23.565Z,16.93
2019-02-07T15:52:53.812Z,17.80
2019-02-07T15:55:22.180Z,14.80
2019-02-07T15:57:50.629Z,15.60
2019-02-07T16:00:43.649Z,16.10
2019-02-07T16:03:32.404Z,16.47
2019-02-07T16:06:00.824Z,15.40
2019-02-07T16:08:29.192Z,18.77
2019-02-07T16:10:57.569Z,16.93
2019-02-07T16:13:25.954Z,17.73
2019-02-07T16:15:54.412Z,16.57
2019-02-07T16:18:22.723Z,16.90
2019-02-07T16:20:51.091Z,16.77
2019-02-07T16:23:19.487Z,16.47
2019-02-07T16:25:47.885Z,16.30
2019-02-07T16:28:16.263Z,16.23
2019-02-07T16:30:44.937Z,17.33
2019-02-07T16:33:13.349Z,15.87
2019-02-07T16:35:41.753Z,17.40
2019-02-07T16:38:10.131Z,17.40
2019-02-07T16:40:38.539Z,16.70
2019-02-07T16:43:07.014Z,16.73
2019-02-07T16:45:35.490Z,16.50
2019-02-07T16:48:04.175Z,16.20
2019-02-07T16:50:34.104Z,17.00
2019-02-07T16:53:02.504Z,15.87
2019-02-07T16:55:30.879Z,17.77
2019-02-07T16:57:59.308Z,17.53
2019-02-07T17:00:31.329Z,16.93
2019-02-07T17:03:00.021Z,16.50
2019-02-07T17:05:28.417Z,14.40
2019-02-07T17:07:56.978Z,14.77
2019-02-07T17:10:31.192Z,16.17
2019-02-07T17:12:59.686Z,16.27
2019-02-07T17:15:28.103Z,16.37
2019-02-07T17:17:56.844Z,16.13
2019-02-07T17:20:32.047Z,16.27
2019-02-07T17:23:00.525Z,19.53
2019-02-07T17:25:30.920Z,17.60
2019-02-07T17:27:59.309Z,14.87
2019-02-07T17:30:28.141Z,17.77
2019-02-07T17:32:56.542Z,17.90
2019-02-07T17:35:24.915Z,17.13
2019-02-07T17:37:53.320Z,18.03
2019-02-07T17:40:24.112Z,16.40
2019-02-07T17:42:52.516Z,18.83
2019-02-07T17:45:26.280Z,17.53
2019-02-07T17:47:54.631Z,16.47
2019-02-07T17:50:26.087Z,17.33
2019-02-07T17:52:54.814Z,16.70
2019-02-07T17:55:24.907Z,17.90
2019-02-07T17:57:53.290Z,17.23
2019-02-07T18:00:35.091Z,16.90
2019-02-07T18:03:03.454Z,17.17
2019-02-07T18:05:31.832Z,16.00
2019-02-07T18:08:00.209Z,17.67
2019-02-07T18:10:28.813Z,17.63
2019-02-07T18:12:57.206Z,17.67
2019-02-07T18:15:25.867Z,19.20
2019-02-07T18:17:54.264Z,18.30
2019-02-07T18:20:23.411Z,19.23
2019-02-07T18:22:51.803Z,19.20
2019-02-07T18:25:20.247Z,18.77
2019-02-07T18:27:48.579Z,16.30
2019-02-07T18:30:22.049Z,18.30
2019-02-07T18:32:50.408Z,19.87
2019-02-07T18:35:21.392Z,18.43
2019-02-07T18:37:49.786Z,19.53
2019-02-07T18:40:20.960Z,19.00
2019-02-07T18:42:49.344Z,16.67
2019-02-07T18:45:19.448Z,16.20
2019-02-07T18:47:47.821Z,16.77
2019-02-07T18:50:33.428Z,18.53
2019-02-07T18:53:01.828Z,16.97
2019-02-07T18:55:30.211Z,17.83
2019-02-07T18:57:59.000Z,16.63
2019-02-07T19:00:35.534Z,16.80
2019-02-07T19:03:04.772Z,16.60
2019-02-07T19:05:33.131Z,16.97
2019-02-07T19:08:01.565Z,16.97
2019-02-07T19:10:29.956Z,18.07
2019-02-07T19:12:58.664Z,16.20
2019-02-07T19:15:36.063Z,17.43
2019-02-07T19:18:05.522Z,16.87
2019-02-07T19:20:33.896Z,17.40
2019-02-07T19:23:02.282Z,17.13
2019-02-07T19:25:30.682Z,15.97
2019-02-07T19:27:59.383Z,15.03
2019-02-07T19:30:31.935Z,14.90
2019-02-07T19:33:00.413Z,14.93
2019-02-07T19:35:28.827Z,16.47
2019-02-07T19:37:57.294Z,15.67
2019-02-07T19:40:25.737Z,15.87
2019-02-07T19:42:54.471Z,15.30
2019-02-07T19:45:26.858Z,17.97
2019-02-07T19:47:55.226Z,16.63
2019-02-07T19:50:28.454Z,14.93
2019-02-07T19:52:56.971Z,16.13
2019-02-07T19:55:27.517Z,15.07
2019-02-07T19:57:57.051Z,17.23
2019-02-07T20:00:32.627Z,14.47
2019-02-07T20:03:01.206Z,14.70
2019-02-07T20:05:29.567Z,16.40
2019-02-07T20:07:58.057Z,17.20
2019-02-07T20:10:29.641Z,15.37
2019-02-07T20:12:58.596Z,15.53
2019-02-07T20:15:32.628Z,15.00
2019-02-07T20:18:01.038Z,13.27
2019-02-07T20:20:29.487Z,14.23
2019-02-07T20:22:57.839Z,15.83
2019-02-07T20:25:26.226Z,17.27
2019-02-07T20:27:54.609Z,16.87
2019-02-07T20:30:28.128Z,17.00
2019-02-07T20:32:56.543Z,15.80
2019-02-07T20:35:24.908Z,16.80
2019-02-07T20:37:53.396Z,15.30
2019-02-07T20:40:24.570Z,16.47
2019-02-07T20:42:52.979Z,15.83
2019-02-07T20:45:21.780Z,14.77
2019-02-07T20:47:50.157Z,15.57
2019-02-07T20:50:20.428Z,15.03
2019-02-07T20:52:49.143Z,14.17
2019-02-07T20:55:17.550Z,14.57
2019-02-07T20:57:45.927Z,14.47
2019-02-07T21:00:17.588Z,14.70
2019-02-07T21:02:46.263Z,15.03
2019-02-07T21:05:16.301Z,15.57
2019-02-07T21:07:44.674Z,16.03
2019-02-07T21:10:16.209Z,16.63
2019-02-07T21:12:44.605Z,15.33
2019-02-07T21:15:18.888Z,15.10
2019-02-07T21:17:47.618Z,16.00
2019-02-07T21:20:18.342Z,15.63
2019-02-07T21:22:46.844Z,16.43
2019-02-07T21:25:23.766Z,16.23
2019-02-07T21:27:52.145Z,15.87
2019-02-07T21:30:28.676Z,16.33
2019-02-07T21:32:57.127Z,15.67
2019-02-07T21:35:25.736Z,15.80
2019-02-07T21:37:54.234Z,17.00
2019-02-07T21:40:24.769Z,15.93
2019-02-07T21:42:54.503Z,14.03
2019-02-07T21:45:22.866Z,16.50
2019-02-07T21:47:51.562Z,15.60
2019-02-07T21:50:25.299Z,15.27
2019-02-07T21:52:53.699Z,14.57
2019-02-07T21:55:24.309Z,16.23
2019-02-07T21:57:52.713Z,15.63
2019-02-07T22:00:24.387Z,18.40
2019-02-07T22:02:53.163Z,16.80
2019-02-07T22:05:21.627Z,16.13
2019-02-07T22:07:50.007Z,16.00
2019-02-07T22:10:18.569Z,16.93
2019-02-07T22:12:46.947Z,15.10
2019-02-07T22:15:26.241Z,16.93
2019-02-07T22:17:54.621Z,16.30
2019-02-07T22:20:25.421Z,16.33
2019-02-07T22:22:53.817Z,16.33
2019-02-07T22:25:22.015Z,15.03
2019-02-07T22:27:50.368Z,15.60
2019-02-07T22:30:21.567Z,16.73
2019-02-07T22:32:49.960Z,17.00
2019-02-07T22:35:18.455Z,15.97
2019-02-07T22:37:46.933Z,15.80
2019-02-07T22:40:20.706Z,17.10
2019-02-07T22:42:49.138Z,16.50
2019-02-07T22:45:20.099Z,16.50
2019-02-07T22:47:48.471Z,16.60
2019-02-07T22:50:19.552Z,17.27
2019-02-07T22:52:47.917Z,15.37
2019-02-07T22:55:16.399Z,17.07
2019-02-07T22:57:44.777Z,16.40
2019-02-07T23:00:36.408Z,14.87
2019-02-07T23:03:06.989Z,15.67
2019-02-07T23:05:35.369Z,16.73
2019-02-07T23:08:03.919Z,16.50
2019-02-07T23:10:32.292Z,17.80
2019-02-07T23:13:00.815Z,16.77
2019-02-07T23:15:29.198Z,16.03
2019-02-07T23:17:57.622Z,15.70
2019-02-07T23:20:26.007Z,15.93
2019-02-07T23:22:54.393Z,15.87
2019-02-07T23:25:22.756Z,16.93
2019-02-07T23:27:51.145Z,15.60
2019-02-07T23:30:20.196Z,16.37
2019-02-07T23:32:48.574Z,17.87
2019-02-07T23:35:16.955Z,15.80
2019-02-07T23:37:45.347Z,18.83
2019-02-07T23:40:19.167Z,16.90
2019-02-07T23:42:47.564Z,16.17
2019-02-07T23:45:17.379Z,16.37
2019-02-07T23:47:45.754Z,18.27
2019-02-07T23:50:14.136Z,17.80
2019-02-07T23:52:42.528Z,17.07
2019-02-07T23:55:14.552Z,15.57
2019-02-07T23:57:42.972Z,17.37
